Terminal Aerodrome Forecast
Issued by NWS Pocatello, ID

Home | Current Version | Previous Version | Text Only | Print | Product List | Glossary On
Versions: 1 2 3 4 5 6 7 8 9 10 11 12 13 14 15 16
100
FTUS45 KPIH 131720
TAFIDA
TAF
KIDA 131720Z 1318/1418 20005KT 6SM BR VCSH OVC015
     FM140400 36005KT 6SM BR FEW002
     FM140700 36003KT 3/4SM BR BKN002=

USA.gov is the U.S. government's official web portal to all federal, state and local government web resources and services.